In Rescue
 
Open Full Screen Window  High Contrast Mode
Wind Gusting 20 knots
09
June 22, 2024 10:56 PM EDT
Weather Information
Wind Direction
  210 °
Wind Speed
  09 kt (10 mph)
Wind Gust
  20 kt (23 mph)
Altimeter
29.69 in
Visibility
10 SM
Temperature
29° C
84° F
Dewpoint
18° C
64° F
Humidity
52%
Sky Condition
Scattered @ 12,000 ft
Scattered @ 9,500 ft
Scattered @ 8,000 ft
VFR

METAR KLWA 230256Z AUTO 21009G20KT 10SM SCT080 SCT095 SCT120 29/18 A2969 RMK AO2 T02910176

FAA Disclaimer: The data displayed is for advisory purposes only and is not to be used for flight planning or operations.